sensor_id;sensor_type;location;lat;lon;timestamp;P1;durP1;ratioP1;P2;durP2;ratioP2
727;SDS011;347;48.780;9.158;2023-05-07T00:01:13;11.17;;;10.20;;
727;SDS011;347;48.780;9.158;2023-05-07T00:03:38;11.83;;;11.03;;
727;SDS011;347;48.780;9.158;2023-05-07T00:06:04;10.70;;;9.87;;
727;SDS011;347;48.780;9.158;2023-05-07T00:08:30;10.80;;;10.20;;
727;SDS011;347;48.780;9.158;2023-05-07T00:10:55;11.33;;;10.73;;
727;SDS011;347;48.780;9.158;2023-05-07T00:13:21;10.43;;;9.83;;
727;SDS011;347;48.780;9.158;2023-05-07T00:15:46;10.80;;;10.10;;
727;SDS011;347;48.780;9.158;2023-05-07T00:18:12;11.00;;;10.40;;
727;SDS011;347;48.780;9.158;2023-05-07T00:20:37;11.10;;;10.40;;
727;SDS011;347;48.780;9.158;2023-05-07T00:23:03;12.40;;;11.60;;
727;SDS011;347;48.780;9.158;2023-05-07T00:25:28;10.43;;;10.03;;
727;SDS011;347;48.780;9.158;2023-05-07T00:27:54;11.80;;;11.20;;
727;SDS011;347;48.780;9.158;2023-05-07T00:30:19;12.07;;;11.17;;
727;SDS011;347;48.780;9.158;2023-05-07T00:32:45;11.57;;;10.77;;
727;SDS011;347;48.780;9.158;2023-05-07T00:35:11;11.70;;;11.03;;
727;SDS011;347;48.780;9.158;2023-05-07T00:37:37;11.47;;;10.80;;
727;SDS011;347;48.780;9.158;2023-05-07T00:40:02;12.30;;;11.60;;
727;SDS011;347;48.780;9.158;2023-05-07T00:42:32;12.00;;;11.03;;
727;SDS011;347;48.780;9.158;2023-05-07T00:44:57;12.13;;;11.23;;
727;SDS011;347;48.780;9.158;2023-05-07T00:47:23;12.33;;;11.53;;
727;SDS011;347;48.780;9.158;2023-05-07T00:49:50;13.17;;;12.27;;
727;SDS011;347;48.780;9.158;2023-05-07T00:52:16;11.97;;;11.37;;
727;SDS011;347;48.780;9.158;2023-05-07T00:54:44;12.00;;;11.10;;
727;SDS011;347;48.780;9.158;2023-05-07T00:57:10;11.73;;;11.13;;
727;SDS011;347;48.780;9.158;2023-05-07T00:59:36;11.90;;;11.20;;
727;SDS011;347;48.780;9.158;2023-05-07T01:02:02;12.80;;;12.00;;
727;SDS011;347;48.780;9.158;2023-05-07T01:04:27;12.80;;;12.00;;
727;SDS011;347;48.780;9.158;2023-05-07T01:06:53;12.20;;;11.50;;
727;SDS011;347;48.780;9.158;2023-05-07T01:09:21;11.90;;;11.27;;
727;SDS011;347;48.780;9.158;2023-05-07T01:11:49;13.30;;;12.30;;
727;SDS011;347;48.780;9.158;2023-05-07T01:14:15;13.13;;;12.33;;
727;SDS011;347;48.780;9.158;2023-05-07T01:16:41;13.23;;;12.33;;
727;SDS011;347;48.780;9.158;2023-05-07T01:19:07;13.07;;;12.30;;
727;SDS011;347;48.780;9.158;2023-05-07T01:21:35;12.70;;;12.00;;
727;SDS011;347;48.780;9.158;2023-05-07T01:24:03;13.93;;;13.23;;
727;SDS011;347;48.780;9.158;2023-05-07T01:26:30;13.37;;;12.43;;
727;SDS011;347;48.780;9.158;2023-05-07T01:28:55;13.13;;;12.33;;
727;SDS011;347;48.780;9.158;2023-05-07T01:31:21;12.43;;;11.83;;
727;SDS011;347;48.780;9.158;2023-05-07T01:33:49;13.60;;;12.90;;
727;SDS011;347;48.780;9.158;2023-05-07T01:36:17;13.33;;;12.60;;
727;SDS011;347;48.780;9.158;2023-05-07T01:38:43;13.13;;;12.43;;
727;SDS011;347;48.780;9.158;2023-05-07T01:41:09;13.60;;;12.90;;
727;SDS011;347;48.780;9.158;2023-05-07T01:43:36;12.50;;;11.80;;
727;SDS011;347;48.780;9.158;2023-05-07T01:46:02;14.20;;;13.10;;
727;SDS011;347;48.780;9.158;2023-05-07T01:48:28;13.40;;;12.70;;
727;SDS011;347;48.780;9.158;2023-05-07T01:50:54;13.23;;;12.53;;
727;SDS011;347;48.780;9.158;2023-05-07T01:53:20;12.37;;;11.67;;
727;SDS011;347;48.780;9.158;2023-05-07T01:55:46;13.00;;;12.30;;
727;SDS011;347;48.780;9.158;2023-05-07T01:58:11;14.77;;;13.87;;
727;SDS011;347;48.780;9.158;2023-05-07T02:00:37;13.60;;;12.80;;
727;SDS011;347;48.780;9.158;2023-05-07T02:03:02;13.00;;;12.30;;
727;SDS011;347;48.780;9.158;2023-05-07T02:05:28;13.30;;;12.50;;
727;SDS011;347;48.780;9.158;2023-05-07T02:07:53;12.90;;;12.20;;
727;SDS011;347;48.780;9.158;2023-05-07T02:10:19;12.67;;;12.07;;
727;SDS011;347;48.780;9.158;2023-05-07T02:12:45;12.80;;;12.00;;
727;SDS011;347;48.780;9.158;2023-05-07T02:15:10;13.50;;;12.70;;
727;SDS011;347;48.780;9.158;2023-05-07T02:17:38;13.53;;;12.77;;
727;SDS011;347;48.780;9.158;2023-05-07T02:20:22;14.50;;;13.67;;
727;SDS011;347;48.780;9.158;2023-05-07T02:22:48;14.17;;;12.73;;
727;SDS011;347;48.780;9.158;2023-05-07T02:25:13;13.13;;;12.30;;
727;SDS011;347;48.780;9.158;2023-05-07T02:27:39;14.37;;;13.57;;
727;SDS011;347;48.780;9.158;2023-05-07T02:30:05;13.70;;;13.00;;
727;SDS011;347;48.780;9.158;2023-05-07T02:32:31;12.53;;;11.83;;
727;SDS011;347;48.780;9.158;2023-05-07T02:34:56;13.67;;;12.87;;
727;SDS011;347;48.780;9.158;2023-05-07T02:37:22;13.60;;;12.80;;
727;SDS011;347;48.780;9.158;2023-05-07T02:39:47;13.77;;;12.97;;
727;SDS011;347;48.780;9.158;2023-05-07T02:42:13;14.23;;;13.43;;
727;SDS011;347;48.780;9.158;2023-05-07T02:44:38;13.13;;;12.43;;
727;SDS011;347;48.780;9.158;2023-05-07T02:47:04;13.80;;;13.10;;
727;SDS011;347;48.780;9.158;2023-05-07T02:52:51;13.27;;;12.63;;
727;SDS011;347;48.780;9.158;2023-05-07T02:55:17;13.53;;;12.50;;
727;SDS011;347;48.780;9.158;2023-05-07T02:57:42;13.63;;;12.93;;
727;SDS011;347;48.780;9.158;2023-05-07T03:00:15;13.10;;;12.30;;
727;SDS011;347;48.780;9.158;2023-05-07T03:02:42;13.47;;;12.40;;
727;SDS011;347;48.780;9.158;2023-05-07T03:05:09;13.77;;;12.97;;
727;SDS011;347;48.780;9.158;2023-05-07T03:07:35;12.70;;;12.00;;
727;SDS011;347;48.780;9.158;2023-05-07T03:10:01;13.67;;;12.97;;
727;SDS011;347;48.780;9.158;2023-05-07T03:12:27;14.17;;;13.47;;
727;SDS011;347;48.780;9.158;2023-05-07T03:14:52;14.13;;;13.33;;
727;SDS011;347;48.780;9.158;2023-05-07T03:17:18;13.17;;;12.47;;
727;SDS011;347;48.780;9.158;2023-05-07T03:19:43;12.10;;;11.50;;
727;SDS011;347;48.780;9.158;2023-05-07T03:22:09;13.53;;;12.53;;
727;SDS011;347;48.780;9.158;2023-05-07T03:24:34;14.03;;;13.33;;
727;SDS011;347;48.780;9.158;2023-05-07T03:27:00;13.97;;;13.17;;
727;SDS011;347;48.780;9.158;2023-05-07T03:29:26;14.43;;;13.63;;
727;SDS011;347;48.780;9.158;2023-05-07T03:31:51;14.83;;;13.83;;
727;SDS011;347;48.780;9.158;2023-05-07T03:34:17;13.10;;;12.40;;
727;SDS011;347;48.780;9.158;2023-05-07T03:36:46;12.73;;;12.03;;
727;SDS011;347;48.780;9.158;2023-05-07T03:39:15;13.30;;;12.50;;
727;SDS011;347;48.780;9.158;2023-05-07T03:41:41;14.23;;;13.40;;
727;SDS011;347;48.780;9.158;2023-05-07T03:44:06;12.77;;;12.07;;
727;SDS011;347;48.780;9.158;2023-05-07T03:46:32;13.50;;;12.70;;
727;SDS011;347;48.780;9.158;2023-05-07T03:48:58;13.43;;;12.73;;
727;SDS011;347;48.780;9.158;2023-05-07T03:51:24;11.97;;;11.37;;
727;SDS011;347;48.780;9.158;2023-05-07T03:53:50;12.30;;;11.60;;
727;SDS011;347;48.780;9.158;2023-05-07T03:56:18;12.77;;;11.87;;
727;SDS011;347;48.780;9.158;2023-05-07T03:58:44;11.90;;;11.30;;
727;SDS011;347;48.780;9.158;2023-05-07T04:01:09;12.90;;;12.20;;
727;SDS011;347;48.780;9.158;2023-05-07T04:03:35;11.97;;;11.43;;
727;SDS011;347;48.780;9.158;2023-05-07T04:06:00;12.00;;;11.40;;
727;SDS011;347;48.780;9.158;2023-05-07T04:08:26;11.20;;;10.70;;
727;SDS011;347;48.780;9.158;2023-05-07T04:10:55;12.63;;;11.83;;
727;SDS011;347;48.780;9.158;2023-05-07T04:13:21;12.33;;;11.63;;
727;SDS011;347;48.780;9.158;2023-05-07T04:15:47;12.20;;;11.60;;
727;SDS011;347;48.780;9.158;2023-05-07T04:18:14;12.63;;;11.93;;
727;SDS011;347;48.780;9.158;2023-05-07T04:20:39;12.27;;;11.57;;
727;SDS011;347;48.780;9.158;2023-05-07T04:23:05;13.30;;;12.70;;
727;SDS011;347;48.780;9.158;2023-05-07T04:25:30;12.27;;;11.63;;
727;SDS011;347;48.780;9.158;2023-05-07T04:27:56;14.07;;;13.27;;
727;SDS011;347;48.780;9.158;2023-05-07T04:30:22;13.30;;;12.60;;
727;SDS011;347;48.780;9.158;2023-05-07T04:32:47;12.87;;;12.27;;
727;SDS011;347;48.780;9.158;2023-05-07T04:35:13;12.47;;;11.87;;
727;SDS011;347;48.780;9.158;2023-05-07T04:37:39;12.97;;;12.37;;
727;SDS011;347;48.780;9.158;2023-05-07T04:40:05;13.13;;;12.23;;
727;SDS011;347;48.780;9.158;2023-05-07T04:42:31;13.47;;;12.67;;
727;SDS011;347;48.780;9.158;2023-05-07T04:44:57;12.73;;;12.20;;
727;SDS011;347;48.780;9.158;2023-05-07T04:47:22;12.60;;;12.00;;
727;SDS011;347;48.780;9.158;2023-05-07T04:49:48;13.50;;;12.50;;
727;SDS011;347;48.780;9.158;2023-05-07T04:52:13;13.93;;;13.13;;
727;SDS011;347;48.780;9.158;2023-05-07T04:54:40;13.30;;;12.70;;
727;SDS011;347;48.780;9.158;2023-05-07T04:57:05;12.97;;;12.27;;
727;SDS011;347;48.780;9.158;2023-05-07T04:59:31;13.20;;;12.60;;
727;SDS011;347;48.780;9.158;2023-05-07T05:01:57;13.83;;;13.03;;
727;SDS011;347;48.780;9.158;2023-05-07T05:04:23;14.33;;;13.17;;
727;SDS011;347;48.780;9.158;2023-05-07T05:06:49;14.40;;;13.70;;
727;SDS011;347;48.780;9.158;2023-05-07T05:09:14;12.90;;;12.30;;
727;SDS011;347;48.780;9.158;2023-05-07T05:11:40;13.40;;;12.80;;
727;SDS011;347;48.780;9.158;2023-05-07T05:14:06;14.00;;;13.30;;
727;SDS011;347;48.780;9.158;2023-05-07T05:16:32;13.50;;;12.90;;
727;SDS011;347;48.780;9.158;2023-05-07T05:18:57;13.33;;;12.63;;
727;SDS011;347;48.780;9.158;2023-05-07T05:21:23;12.93;;;12.27;;
727;SDS011;347;48.780;9.158;2023-05-07T05:23:49;13.50;;;12.80;;
727;SDS011;347;48.780;9.158;2023-05-07T05:26:14;14.27;;;13.50;;
727;SDS011;347;48.780;9.158;2023-05-07T05:28:40;13.70;;;12.93;;
727;SDS011;347;48.780;9.158;2023-05-07T05:31:05;14.33;;;13.53;;
727;SDS011;347;48.780;9.158;2023-05-07T05:33:31;13.37;;;12.57;;
727;SDS011;347;48.780;9.158;2023-05-07T05:35:56;12.57;;;11.97;;
727;SDS011;347;48.780;9.158;2023-05-07T05:38:22;13.67;;;13.03;;
727;SDS011;347;48.780;9.158;2023-05-07T05:40:48;14.03;;;13.23;;
727;SDS011;347;48.780;9.158;2023-05-07T05:43:13;14.20;;;13.40;;
727;SDS011;347;48.780;9.158;2023-05-07T05:45:39;14.47;;;13.47;;
727;SDS011;347;48.780;9.158;2023-05-07T05:48:05;14.73;;;13.93;;
727;SDS011;347;48.780;9.158;2023-05-07T05:50:31;14.07;;;13.27;;
727;SDS011;347;48.780;9.158;2023-05-07T05:52:56;14.23;;;12.93;;
727;SDS011;347;48.780;9.158;2023-05-07T05:55:22;13.10;;;12.30;;
727;SDS011;347;48.780;9.158;2023-05-07T05:57:48;14.00;;;13.30;;
727;SDS011;347;48.780;9.158;2023-05-07T06:00:15;14.70;;;13.90;;
727;SDS011;347;48.780;9.158;2023-05-07T06:02:41;14.30;;;13.50;;
727;SDS011;347;48.780;9.158;2023-05-07T06:05:07;13.87;;;12.87;;
727;SDS011;347;48.780;9.158;2023-05-07T06:07:33;14.47;;;13.57;;
727;SDS011;347;48.780;9.158;2023-05-07T06:09:59;13.97;;;13.27;;
727;SDS011;347;48.780;9.158;2023-05-07T06:12:25;14.20;;;13.50;;
727;SDS011;347;48.780;9.158;2023-05-07T06:14:51;14.23;;;13.50;;
727;SDS011;347;48.780;9.158;2023-05-07T06:17:17;13.67;;;12.97;;
727;SDS011;347;48.780;9.158;2023-05-07T06:19:42;14.57;;;13.77;;
727;SDS011;347;48.780;9.158;2023-05-07T06:22:08;14.93;;;14.20;;
727;SDS011;347;48.780;9.158;2023-05-07T06:24:33;14.63;;;13.83;;
727;SDS011;347;48.780;9.158;2023-05-07T06:26:59;15.00;;;14.20;;
727;SDS011;347;48.780;9.158;2023-05-07T06:29:25;14.83;;;13.93;;
727;SDS011;347;48.780;9.158;2023-05-07T06:31:55;15.30;;;14.30;;
727;SDS011;347;48.780;9.158;2023-05-07T06:34:20;14.10;;;13.30;;
727;SDS011;347;48.780;9.158;2023-05-07T06:36:46;13.30;;;12.60;;
727;SDS011;347;48.780;9.158;2023-05-07T06:39:11;13.67;;;12.97;;
727;SDS011;347;48.780;9.158;2023-05-07T06:41:37;13.80;;;13.00;;
727;SDS011;347;48.780;9.158;2023-05-07T06:44:03;13.20;;;12.60;;
727;SDS011;347;48.780;9.158;2023-05-07T06:46:30;14.17;;;13.47;;
727;SDS011;347;48.780;9.158;2023-05-07T06:48:55;13.40;;;12.77;;
727;SDS011;347;48.780;9.158;2023-05-07T06:51:21;14.00;;;13.20;;
727;SDS011;347;48.780;9.158;2023-05-07T06:53:47;14.00;;;13.30;;
727;SDS011;347;48.780;9.158;2023-05-07T06:56:13;14.17;;;13.37;;
727;SDS011;347;48.780;9.158;2023-05-07T06:58:38;14.60;;;13.70;;
727;SDS011;347;48.780;9.158;2023-05-07T07:01:04;13.43;;;12.80;;
727;SDS011;347;48.780;9.158;2023-05-07T07:03:30;13.33;;;12.73;;
727;SDS011;347;48.780;9.158;2023-05-07T07:05:55;12.80;;;12.10;;
727;SDS011;347;48.780;9.158;2023-05-07T07:08:21;13.70;;;13.00;;
727;SDS011;347;48.780;9.158;2023-05-07T07:10:47;13.90;;;13.20;;
727;SDS011;347;48.780;9.158;2023-05-07T07:13:13;14.20;;;13.40;;
727;SDS011;347;48.780;9.158;2023-05-07T07:15:38;13.40;;;12.80;;
727;SDS011;347;48.780;9.158;2023-05-07T07:18:05;13.30;;;12.60;;
727;SDS011;347;48.780;9.158;2023-05-07T07:20:31;13.43;;;12.73;;
727;SDS011;347;48.780;9.158;2023-05-07T07:22:56;15.97;;;14.87;;
727;SDS011;347;48.780;9.158;2023-05-07T07:25:22;13.40;;;12.70;;
727;SDS011;347;48.780;9.158;2023-05-07T07:27:48;11.70;;;11.20;;
727;SDS011;347;48.780;9.158;2023-05-07T07:30:14;10.90;;;10.40;;
727;SDS011;347;48.780;9.158;2023-05-07T07:32:39;11.40;;;10.70;;
727;SDS011;347;48.780;9.158;2023-05-07T07:35:05;11.17;;;10.60;;
727;SDS011;347;48.780;9.158;2023-05-07T07:37:31;11.27;;;10.67;;
727;SDS011;347;48.780;9.158;2023-05-07T07:39:57;13.07;;;12.10;;
727;SDS011;347;48.780;9.158;2023-05-07T07:42:22;11.83;;;11.00;;
727;SDS011;347;48.780;9.158;2023-05-07T07:44:48;10.23;;;9.73;;
727;SDS011;347;48.780;9.158;2023-05-07T07:47:13;12.07;;;11.30;;
727;SDS011;347;48.780;9.158;2023-05-07T07:49:39;10.70;;;10.03;;
727;SDS011;347;48.780;9.158;2023-05-07T07:52:05;9.63;;;9.10;;
727;SDS011;347;48.780;9.158;2023-05-07T07:54:30;10.80;;;10.20;;
727;SDS011;347;48.780;9.158;2023-05-07T07:56:56;11.20;;;10.60;;
727;SDS011;347;48.780;9.158;2023-05-07T07:59:21;10.60;;;9.80;;
727;SDS011;347;48.780;9.158;2023-05-07T08:01:47;10.87;;;10.27;;
727;SDS011;347;48.780;9.158;2023-05-07T08:04:15;9.90;;;9.40;;
727;SDS011;347;48.780;9.158;2023-05-07T08:06:40;8.93;;;8.43;;
727;SDS011;347;48.780;9.158;2023-05-07T08:09:06;9.60;;;9.10;;
727;SDS011;347;48.780;9.158;2023-05-07T08:11:31;9.70;;;9.10;;
727;SDS011;347;48.780;9.158;2023-05-07T08:13:57;9.13;;;8.40;;
727;SDS011;347;48.780;9.158;2023-05-07T08:16:22;10.60;;;10.00;;
727;SDS011;347;48.780;9.158;2023-05-07T08:18:48;10.47;;;9.67;;
727;SDS011;347;48.780;9.158;2023-05-07T08:21:13;10.17;;;9.47;;
727;SDS011;347;48.780;9.158;2023-05-07T08:23:39;10.60;;;9.90;;
727;SDS011;347;48.780;9.158;2023-05-07T08:26:05;10.63;;;9.93;;
727;SDS011;347;48.780;9.158;2023-05-07T08:28:32;9.53;;;9.03;;
727;SDS011;347;48.780;9.158;2023-05-07T08:30:57;9.80;;;9.10;;
727;SDS011;347;48.780;9.158;2023-05-07T08:33:25;9.60;;;8.73;;
727;SDS011;347;48.780;9.158;2023-05-07T08:35:50;8.83;;;8.23;;
727;SDS011;347;48.780;9.158;2023-05-07T08:38:16;9.20;;;8.70;;
727;SDS011;347;48.780;9.158;2023-05-07T08:40:41;9.50;;;8.70;;
727;SDS011;347;48.780;9.158;2023-05-07T08:43:07;9.00;;;8.30;;
727;SDS011;347;48.780;9.158;2023-05-07T08:45:33;9.10;;;8.70;;
727;SDS011;347;48.780;9.158;2023-05-07T08:48:01;8.00;;;7.60;;
727;SDS011;347;48.780;9.158;2023-05-07T08:50:28;8.40;;;8.00;;
727;SDS011;347;48.780;9.158;2023-05-07T08:52:54;8.03;;;7.70;;
727;SDS011;347;48.780;9.158;2023-05-07T08:55:21;7.87;;;7.37;;
727;SDS011;347;48.780;9.158;2023-05-07T08:57:47;7.93;;;7.63;;
727;SDS011;347;48.780;9.158;2023-05-07T09:00:13;7.13;;;6.73;;
727;SDS011;347;48.780;9.158;2023-05-07T09:02:39;7.77;;;7.37;;
727;SDS011;347;48.780;9.158;2023-05-07T09:05:05;8.23;;;7.83;;
727;SDS011;347;48.780;9.158;2023-05-07T09:07:31;7.27;;;6.97;;
727;SDS011;347;48.780;9.158;2023-05-07T09:09:56;7.80;;;7.40;;
727;SDS011;347;48.780;9.158;2023-05-07T09:12:22;6.83;;;6.53;;
727;SDS011;347;48.780;9.158;2023-05-07T09:14:48;7.67;;;7.27;;
727;SDS011;347;48.780;9.158;2023-05-07T09:17:15;7.87;;;7.23;;
727;SDS011;347;48.780;9.158;2023-05-07T09:19:41;7.93;;;7.53;;
727;SDS011;347;48.780;9.158;2023-05-07T09:22:08;8.33;;;7.93;;
727;SDS011;347;48.780;9.158;2023-05-07T09:24:34;8.40;;;8.00;;
727;SDS011;347;48.780;9.158;2023-05-07T09:27:00;7.77;;;7.47;;
727;SDS011;347;48.780;9.158;2023-05-07T09:29:27;7.73;;;7.40;;
727;SDS011;347;48.780;9.158;2023-05-07T09:31:55;7.27;;;6.80;;
727;SDS011;347;48.780;9.158;2023-05-07T09:34:21;7.60;;;7.00;;
727;SDS011;347;48.780;9.158;2023-05-07T09:36:47;7.90;;;7.60;;
727;SDS011;347;48.780;9.158;2023-05-07T09:39:12;8.00;;;7.60;;
727;SDS011;347;48.780;9.158;2023-05-07T09:41:45;7.47;;;7.00;;
727;SDS011;347;48.780;9.158;2023-05-07T09:44:12;7.93;;;7.43;;
727;SDS011;347;48.780;9.158;2023-05-07T09:46:39;8.00;;;7.67;;
727;SDS011;347;48.780;9.158;2023-05-07T09:49:08;7.80;;;7.40;;
727;SDS011;347;48.780;9.158;2023-05-07T09:51:45;10.00;;;9.30;;
727;SDS011;347;48.780;9.158;2023-05-07T09:54:14;7.50;;;7.20;;
727;SDS011;347;48.780;9.158;2023-05-07T09:56:40;7.47;;;7.07;;
727;SDS011;347;48.780;9.158;2023-05-07T09:59:07;8.43;;;8.00;;
727;SDS011;347;48.780;9.158;2023-05-07T10:01:33;7.93;;;7.53;;
727;SDS011;347;48.780;9.158;2023-05-07T10:04:02;7.80;;;7.30;;
727;SDS011;347;48.780;9.158;2023-05-07T10:06:33;7.40;;;7.00;;
727;SDS011;347;48.780;9.158;2023-05-07T10:08:59;8.30;;;7.90;;
727;SDS011;347;48.780;9.158;2023-05-07T10:11:26;8.23;;;7.73;;
727;SDS011;347;48.780;9.158;2023-05-07T10:13:52;7.67;;;7.27;;
727;SDS011;347;48.780;9.158;2023-05-07T10:16:18;8.07;;;7.67;;
727;SDS011;347;48.780;9.158;2023-05-07T10:18:45;7.83;;;7.40;;
727;SDS011;347;48.780;9.158;2023-05-07T10:21:18;7.30;;;6.93;;
727;SDS011;347;48.780;9.158;2023-05-07T10:24:00;7.77;;;7.47;;
727;SDS011;347;48.780;9.158;2023-05-07T10:26:35;7.47;;;7.17;;
727;SDS011;347;48.780;9.158;2023-05-07T10:29:03;8.10;;;7.77;;
727;SDS011;347;48.780;9.158;2023-05-07T10:31:48;7.83;;;7.50;;
727;SDS011;347;48.780;9.158;2023-05-07T10:34:26;6.77;;;6.07;;
727;SDS011;347;48.780;9.158;2023-05-07T10:36:57;6.97;;;6.67;;
727;SDS011;347;48.780;9.158;2023-05-07T10:39:23;7.37;;;7.07;;
727;SDS011;347;48.780;9.158;2023-05-07T10:41:49;7.30;;;6.90;;
727;SDS011;347;48.780;9.158;2023-05-07T10:44:28;7.23;;;6.83;;
727;SDS011;347;48.780;9.158;2023-05-07T10:47:04;7.63;;;7.23;;
727;SDS011;347;48.780;9.158;2023-05-07T10:49:35;6.83;;;6.63;;
727;SDS011;347;48.780;9.158;2023-05-07T10:52:11;7.47;;;7.17;;
727;SDS011;347;48.780;9.158;2023-05-07T10:54:42;8.53;;;8.10;;
727;SDS011;347;48.780;9.158;2023-05-07T10:59:56;10.77;;;9.97;;
727;SDS011;347;48.780;9.158;2023-05-07T11:02:22;7.30;;;6.90;;
727;SDS011;347;48.780;9.158;2023-05-07T11:07:55;7.20;;;6.90;;
727;SDS011;347;48.780;9.158;2023-05-07T11:10:47;7.73;;;7.03;;
727;SDS011;347;48.780;9.158;2023-05-07T11:13:14;6.97;;;6.47;;
727;SDS011;347;48.780;9.158;2023-05-07T11:15:41;7.30;;;6.93;;
727;SDS011;347;48.780;9.158;2023-05-07T11:18:09;6.50;;;6.20;;
727;SDS011;347;48.780;9.158;2023-05-07T11:20:45;7.63;;;7.20;;
727;SDS011;347;48.780;9.158;2023-05-07T11:26:03;6.93;;;6.63;;
727;SDS011;347;48.780;9.158;2023-05-07T11:28:30;7.00;;;6.60;;
727;SDS011;347;48.780;9.158;2023-05-07T11:31:00;7.00;;;6.70;;
727;SDS011;347;48.780;9.158;2023-05-07T11:33:27;7.30;;;6.90;;
727;SDS011;347;48.780;9.158;2023-05-07T11:35:53;5.53;;;5.33;;
727;SDS011;347;48.780;9.158;2023-05-07T11:38:19;7.90;;;5.77;;
727;SDS011;347;48.780;9.158;2023-05-07T11:43:16;6.80;;;6.50;;
727;SDS011;347;48.780;9.158;2023-05-07T11:45:42;6.57;;;6.27;;
727;SDS011;347;48.780;9.158;2023-05-07T11:48:07;6.33;;;6.03;;
727;SDS011;347;48.780;9.158;2023-05-07T11:50:33;6.83;;;6.53;;
727;SDS011;347;48.780;9.158;2023-05-07T11:52:59;6.03;;;5.73;;
727;SDS011;347;48.780;9.158;2023-05-07T11:55:24;7.83;;;7.33;;
727;SDS011;347;48.780;9.158;2023-05-07T11:57:51;7.70;;;7.30;;
727;SDS011;347;48.780;9.158;2023-05-07T12:00:17;10.07;;;9.60;;
727;SDS011;347;48.780;9.158;2023-05-07T12:02:43;8.17;;;7.67;;
727;SDS011;347;48.780;9.158;2023-05-07T12:05:10;8.57;;;7.73;;
727;SDS011;347;48.780;9.158;2023-05-07T12:07:35;8.37;;;7.80;;
727;SDS011;347;48.780;9.158;2023-05-07T12:10:05;7.90;;;7.50;;
727;SDS011;347;48.780;9.158;2023-05-07T12:12:32;9.63;;;8.93;;
727;SDS011;347;48.780;9.158;2023-05-07T12:15:07;13.00;;;8.80;;
727;SDS011;347;48.780;9.158;2023-05-07T12:17:33;10.60;;;8.57;;
727;SDS011;347;48.780;9.158;2023-05-07T12:19:58;10.70;;;8.07;;
727;SDS011;347;48.780;9.158;2023-05-07T12:22:25;10.63;;;8.30;;
727;SDS011;347;48.780;9.158;2023-05-07T12:24:57;8.47;;;7.67;;
727;SDS011;347;48.780;9.158;2023-05-07T12:27:23;8.73;;;8.33;;
727;SDS011;347;48.780;9.158;2023-05-07T12:29:49;8.83;;;8.10;;
727;SDS011;347;48.780;9.158;2023-05-07T12:32:19;8.83;;;8.33;;
727;SDS011;347;48.780;9.158;2023-05-07T12:34:46;9.53;;;8.83;;
727;SDS011;347;48.780;9.158;2023-05-07T12:37:14;10.33;;;9.47;;
727;SDS011;347;48.780;9.158;2023-05-07T12:39:49;9.07;;;8.23;;
727;SDS011;347;48.780;9.158;2023-05-07T12:42:28;9.70;;;8.70;;
727;SDS011;347;48.780;9.158;2023-05-07T12:45:00;10.50;;;9.60;;
727;SDS011;347;48.780;9.158;2023-05-07T12:47:32;8.80;;;8.33;;
727;SDS011;347;48.780;9.158;2023-05-07T12:49:58;10.00;;;9.10;;
727;SDS011;347;48.780;9.158;2023-05-07T12:52:24;10.47;;;9.57;;
727;SDS011;347;48.780;9.158;2023-05-07T12:54:50;9.83;;;9.03;;
727;SDS011;347;48.780;9.158;2023-05-07T12:57:15;8.97;;;8.43;;
727;SDS011;347;48.780;9.158;2023-05-07T12:59:44;9.33;;;8.10;;
727;SDS011;347;48.780;9.158;2023-05-07T13:02:10;8.13;;;7.50;;
727;SDS011;347;48.780;9.158;2023-05-07T13:04:36;8.93;;;8.33;;
727;SDS011;347;48.780;9.158;2023-05-07T13:07:01;9.40;;;8.70;;
727;SDS011;347;48.780;9.158;2023-05-07T13:09:28;8.33;;;7.90;;
727;SDS011;347;48.780;9.158;2023-05-07T13:11:57;8.10;;;7.40;;
727;SDS011;347;48.780;9.158;2023-05-07T13:14:26;7.40;;;7.10;;
727;SDS011;347;48.780;9.158;2023-05-07T13:16:51;8.00;;;7.60;;
727;SDS011;347;48.780;9.158;2023-05-07T13:19:17;8.80;;;8.03;;
727;SDS011;347;48.780;9.158;2023-05-07T13:21:42;8.17;;;7.63;;
727;SDS011;347;48.780;9.158;2023-05-07T13:24:08;7.93;;;7.53;;
727;SDS011;347;48.780;9.158;2023-05-07T13:26:34;8.43;;;7.93;;
727;SDS011;347;48.780;9.158;2023-05-07T13:29:00;7.80;;;7.47;;
727;SDS011;347;48.780;9.158;2023-05-07T13:31:25;8.00;;;7.60;;
727;SDS011;347;48.780;9.158;2023-05-07T13:33:51;7.10;;;6.80;;
727;SDS011;347;48.780;9.158;2023-05-07T13:36:17;6.57;;;6.17;;
727;SDS011;347;48.780;9.158;2023-05-07T13:38:43;6.90;;;6.60;;
727;SDS011;347;48.780;9.158;2023-05-07T13:41:08;7.87;;;7.47;;
727;SDS011;347;48.780;9.158;2023-05-07T13:43:34;7.20;;;6.70;;
727;SDS011;347;48.780;9.158;2023-05-07T13:46:00;7.47;;;7.17;;
727;SDS011;347;48.780;9.158;2023-05-07T13:48:25;7.47;;;6.97;;
727;SDS011;347;48.780;9.158;2023-05-07T13:50:51;7.83;;;7.33;;
727;SDS011;347;48.780;9.158;2023-05-07T13:53:17;7.23;;;6.93;;
727;SDS011;347;48.780;9.158;2023-05-07T13:55:43;7.83;;;7.33;;
727;SDS011;347;48.780;9.158;2023-05-07T13:58:09;8.10;;;7.60;;
727;SDS011;347;48.780;9.158;2023-05-07T14:00:35;8.20;;;7.80;;
727;SDS011;347;48.780;9.158;2023-05-07T14:03:01;8.00;;;7.60;;
727;SDS011;347;48.780;9.158;2023-05-07T14:05:26;8.17;;;7.67;;
727;SDS011;347;48.780;9.158;2023-05-07T14:07:53;8.30;;;8.00;;
727;SDS011;347;48.780;9.158;2023-05-07T14:10:19;8.00;;;7.70;;
727;SDS011;347;48.780;9.158;2023-05-07T14:12:45;7.97;;;7.47;;
727;SDS011;347;48.780;9.158;2023-05-07T14:15:10;7.90;;;7.50;;
727;SDS011;347;48.780;9.158;2023-05-07T14:17:36;8.17;;;7.20;;
727;SDS011;347;48.780;9.158;2023-05-07T14:20:02;7.53;;;7.23;;
727;SDS011;347;48.780;9.158;2023-05-07T14:22:28;7.00;;;6.60;;
727;SDS011;347;48.780;9.158;2023-05-07T14:24:54;6.90;;;6.40;;
727;SDS011;347;48.780;9.158;2023-05-07T14:27:20;7.33;;;6.83;;
727;SDS011;347;48.780;9.158;2023-05-07T14:29:45;9.63;;;6.80;;
727;SDS011;347;48.780;9.158;2023-05-07T14:32:15;7.30;;;6.80;;
727;SDS011;347;48.780;9.158;2023-05-07T14:34:42;6.23;;;5.93;;
727;SDS011;347;48.780;9.158;2023-05-07T14:37:08;6.37;;;6.10;;
727;SDS011;347;48.780;9.158;2023-05-07T14:39:34;7.67;;;7.27;;
727;SDS011;347;48.780;9.158;2023-05-07T14:42:00;6.90;;;6.60;;
727;SDS011;347;48.780;9.158;2023-05-07T14:44:25;7.37;;;6.67;;
727;SDS011;347;48.780;9.158;2023-05-07T14:46:51;7.20;;;6.80;;
727;SDS011;347;48.780;9.158;2023-05-07T14:49:16;6.70;;;6.40;;
727;SDS011;347;48.780;9.158;2023-05-07T14:51:45;6.67;;;6.30;;
727;SDS011;347;48.780;9.158;2023-05-07T14:54:15;6.50;;;6.10;;
727;SDS011;347;48.780;9.158;2023-05-07T14:56:41;6.10;;;5.70;;
727;SDS011;347;48.780;9.158;2023-05-07T14:59:10;6.40;;;6.03;;
727;SDS011;347;48.780;9.158;2023-05-07T15:01:38;6.50;;;6.20;;
727;SDS011;347;48.780;9.158;2023-05-07T15:04:07;6.57;;;6.27;;
727;SDS011;347;48.780;9.158;2023-05-07T15:06:33;5.93;;;5.73;;
727;SDS011;347;48.780;9.158;2023-05-07T15:08:58;6.80;;;6.50;;
727;SDS011;347;48.780;9.158;2023-05-07T15:11:24;6.93;;;6.53;;
727;SDS011;347;48.780;9.158;2023-05-07T15:13:52;6.03;;;5.73;;
727;SDS011;347;48.780;9.158;2023-05-07T15:16:18;6.20;;;5.90;;
727;SDS011;347;48.780;9.158;2023-05-07T15:18:44;6.00;;;5.60;;
727;SDS011;347;48.780;9.158;2023-05-07T15:21:09;5.73;;;5.53;;
727;SDS011;347;48.780;9.158;2023-05-07T15:23:35;6.60;;;6.00;;
727;SDS011;347;48.780;9.158;2023-05-07T15:26:00;6.77;;;6.40;;
727;SDS011;347;48.780;9.158;2023-05-07T15:28:30;6.37;;;6.07;;
727;SDS011;347;48.780;9.158;2023-05-07T15:30:55;6.73;;;6.33;;
727;SDS011;347;48.780;9.158;2023-05-07T15:33:21;6.87;;;6.47;;
727;SDS011;347;48.780;9.158;2023-05-07T15:35:47;7.47;;;7.07;;
727;SDS011;347;48.780;9.158;2023-05-07T15:38:12;6.70;;;6.37;;
727;SDS011;347;48.780;9.158;2023-05-07T15:40:38;6.60;;;6.20;;